Terminal Aerodrome Forecast
Issued by NWS

Current Version | Previous Version | Text Only | Print | Product List | Glossary On
Versions: 1 2 3 4 5 6 7 8 9 10 11 12
899
FTUS44 KLIX 201130
TAFMSY
TAF
KMSY 201130Z 2012/2112 07007KT P6SM FEW030 BKN250
     FM201700 09010KT P6SM BKN035 BKN150
     FM210600 12008KT P6SM SCT015 BKN090=

USA.gov is the U.S. government's official web portal to all federal, state and local government web resources and services.